Time;durP1;ratioP1;P1;durP2;ratioP2;P2;SDS_P1;SDS_P2;PMS_P1;PMS_P2;Temp;Humidity;BMP_temperature;BMP_pressure;BME280_temperature;BME280_humidity;BME280_pressure;Samples;Min_cycle;Max_cycle;Signal;HPM_P1;HPM_P2
2023/05/10 00:01:06;;;;;;;2.03;1.83;;;20.80;71.10;;;;;;5061718;28;20200;-48
2023/05/10 00:03:32;;;;;;;2.60;1.67;;;20.80;70.80;;;;;;5061534;28;20228;-52
2023/05/10 00:05:58;;;;;;;1.30;1.20;;;20.80;70.70;;;;;;5070554;28;20188;-50
2023/05/10 00:08:23;;;;;;;2.47;1.73;;;20.80;70.60;;;;;;5068765;28;20446;-50
2023/05/10 00:10:49;;;;;;;2.70;1.90;;;20.80;70.30;;;;;;5062030;28;20188;-52
2023/05/10 00:13:14;;;;;;;3.70;1.57;;;20.80;71.10;;;;;;5068455;28;20275;-50
2023/05/10 00:15:40;;;;;;;1.60;1.30;;;20.70;71.80;;;;;;5061516;28;20192;-53
2023/05/10 00:18:06;;;;;;;1.10;1.00;;;20.30;71.20;;;;;;5061686;28;20251;-51
2023/05/10 00:20:31;;;;;;;0.97;0.90;;;19.90;72.40;;;;;;5059064;28;20185;-51
2023/05/10 00:22:57;;;;;;;0.87;0.80;;;19.60;72.90;;;;;;5063213;28;20188;-51
2023/05/10 00:25:22;;;;;;;0.80;0.70;;;19.50;73.00;;;;;;5061833;28;20866;-50
2023/05/10 00:27:48;;;;;;;0.80;0.80;;;19.60;73.20;;;;;;5070654;28;20598;-52
2023/05/10 00:30:14;;;;;;;1.33;0.80;;;19.50;72.10;;;;;;5067521;28;20192;-51
2023/05/10 00:32:39;;;;;;;0.70;0.70;;;19.30;71.80;;;;;;5067323;28;20545;-50
2023/05/10 00:35:05;;;;;;;0.70;0.70;;;19.50;71.40;;;;;;5061651;28;20609;-51
2023/05/10 00:37:31;;;;;;;0.87;0.50;;;19.60;70.50;;;;;;5058759;28;20227;-51
2023/05/10 00:39:56;;;;;;;0.57;0.57;;;19.60;70.40;;;;;;5056781;28;20837;-51
2023/05/10 00:42:22;;;;;;;1.67;0.60;;;19.60;70.20;;;;;;5063618;28;20218;-52
2023/05/10 00:44:47;;;;;;;0.87;0.60;;;19.50;70.30;;;;;;5059040;28;20966;-50
2023/05/10 00:47:13;;;;;;;0.60;0.60;;;19.60;70.50;;;;;;5058481;28;20663;-50
2023/05/10 00:49:40;;;;;;;1.37;0.77;;;19.70;70.00;;;;;;5059173;28;20688;-51
2023/05/10 00:52:06;;;;;;;0.80;0.70;;;19.80;69.70;;;;;;5060565;28;20564;-50
2023/05/10 00:54:31;;;;;;;0.60;0.60;;;19.90;69.20;;;;;;5069912;28;20474;-53
2023/05/10 00:56:58;;;;;;;2.33;0.60;;;19.90;68.90;;;;;;5069091;28;20478;-51
2023/05/10 00:59:24;;;;;;;0.50;0.50;;;20.00;68.90;;;;;;5057411;28;20199;-51
2023/05/10 01:01:51;;;;;;;0.60;0.60;;;20.00;68.00;;;;;;5071333;28;20446;-51
2023/05/10 01:04:16;;;;;;;0.60;0.60;;;19.90;67.80;;;;;;5067547;28;20687;-51
2023/05/10 01:06:42;;;;;;;1.10;0.70;;;19.70;68.40;;;;;;5044375;28;20446;-49
2023/05/10 01:09:08;;;;;;;2.97;0.60;;;19.60;69.00;;;;;;5065514;28;20204;-48
2023/05/10 01:11:38;;;;;;;0.50;0.50;;;19.70;68.50;;;;;;5070797;28;20440;-51
2023/05/10 01:14:04;;;;;;;0.50;0.50;;;19.70;68.40;;;;;;5071260;28;20656;-51
2023/05/10 01:16:36;;;;;;;2.83;0.50;;;19.60;68.30;;;;;;5067140;28;20560;-50
2023/05/10 01:19:01;;;;;;;0.50;0.50;;;19.50;68.30;;;;;;5070681;28;20496;-50
2023/05/10 01:21:47;;;;;;;0.50;0.50;;;19.30;68.90;;;;;;5064569;28;22179;-50
2023/05/10 01:24:51;;;;;;;0.60;0.50;;;19.00;69.50;;;;;;5057596;28;20188;-51
2023/05/10 01:28:04;;;;;;;0.57;0.57;;;19.00;69.80;;;;;;5060172;28;20858;-52
2023/05/10 01:31:08;;;;;;;0.57;0.57;;;18.80;70.30;;;;;;5053338;28;20805;-50
2023/05/10 01:33:42;;;;;;;0.60;0.57;;;18.90;70.70;;;;;;5067805;28;20704;-50
2023/05/10 01:36:30;;;;;;;2.40;0.70;;;18.80;70.60;;;;;;5059306;28;20506;-54
2023/05/10 01:39:14;;;;;;;0.60;0.60;;;18.70;70.50;;;;;;5060204;28;20941;-55
2023/05/10 01:41:42;;;;;;;0.60;0.60;;;18.70;70.90;;;;;;5064252;28;20496;-50
2023/05/10 01:44:27;;;;;;;0.97;0.83;;;18.70;70.60;;;;;;5069314;28;20441;-51
2023/05/10 01:47:12;;;;;;;0.80;0.80;;;18.60;71.10;;;;;;5067355;28;20856;-51
2023/05/10 01:49:50;;;;;;;0.63;0.63;;;18.60;71.10;;;;;;5070694;28;20431;-50
2023/05/10 01:52:19;;;;;;;0.70;0.70;;;18.60;70.70;;;;;;5065924;28;20484;-53
2023/05/10 01:54:53;;;;;;;0.70;0.70;;;18.80;70.20;;;;;;5057933;28;20483;-51
2023/05/10 01:57:22;;;;;;;1.33;0.80;;;18.90;69.80;;;;;;5061576;28;21042;-53
2023/05/10 01:59:50;;;;;;;0.60;0.60;;;18.90;69.70;;;;;;5063218;28;20434;-51
2023/05/10 02:02:19;;;;;;;2.60;1.00;;;19.00;69.20;;;;;;5062192;28;20468;-54
2023/05/10 02:04:47;;;;;;;0.80;0.80;;;18.90;69.10;;;;;;5067905;28;20461;-51
2023/05/10 02:07:14;;;;;;;1.00;0.80;;;19.00;69.20;;;;;;5060941;28;20438;-50
2023/05/10 02:09:42;;;;;;;0.70;0.70;;;19.10;68.90;;;;;;5041875;28;22234;-54
2023/05/10 02:12:08;;;;;;;2.53;0.80;;;19.00;68.60;;;;;;5059408;28;20469;-51
2023/05/10 02:14:36;;;;;;;0.80;0.80;;;19.10;68.60;;;;;;5058788;28;20481;-51
2023/05/10 02:17:03;;;;;;;0.70;0.70;;;19.20;68.20;;;;;;5070819;28;20472;-51
2023/05/10 02:19:31;;;;;;;0.73;0.73;;;19.10;68.10;;;;;;5070662;28;20505;-50
2023/05/10 02:21:58;;;;;;;0.80;0.80;;;19.20;68.20;;;;;;5065418;28;20443;-53
2023/05/10 02:24:24;;;;;;;1.33;0.63;;;19.10;68.60;;;;;;5067405;28;20511;-51
2023/05/10 02:26:53;;;;;;;0.90;0.73;;;19.00;68.50;;;;;;5067065;28;20485;-54
2023/05/10 02:29:19;;;;;;;0.70;0.70;;;19.20;68.20;;;;;;5068899;28;20442;-55
2023/05/10 02:31:46;;;;;;;1.17;0.90;;;19.20;67.70;;;;;;5070092;28;20438;-50
2023/05/10 02:34:13;;;;;;;0.73;0.73;;;19.30;67.40;;;;;;5063067;28;20515;-52
2023/05/10 02:36:39;;;;;;;2.90;0.70;;;19.50;67.00;;;;;;5070687;28;20481;-50
2023/05/10 02:39:09;;;;;;;0.60;0.60;;;19.60;66.90;;;;;;5069759;28;20450;-51
2023/05/10 02:41:36;;;;;;;0.70;0.70;;;19.70;66.60;;;;;;5070362;28;20456;-51
2023/05/10 02:44:03;;;;;;;1.53;1.00;;;19.80;66.00;;;;;;5074563;28;20479;-50
2023/05/10 02:46:29;;;;;;;0.77;0.73;;;19.90;65.80;;;;;;5070903;28;20456;-50
2023/05/10 02:48:55;;;;;;;0.70;0.70;;;19.90;65.40;;;;;;5067651;28;20438;-50
2023/05/10 02:51:23;;;;;;;0.77;0.77;;;20.00;65.10;;;;;;5073840;28;20507;-52
2023/05/10 02:53:50;;;;;;;0.87;0.80;;;20.10;64.90;;;;;;5065045;28;20231;-52
2023/05/10 02:56:25;;;;;;;1.20;0.80;;;20.20;64.70;;;;;;5066287;28;20537;-50
2023/05/10 02:58:52;;;;;;;0.70;0.70;;;20.30;64.40;;;;;;5073352;28;20477;-51
2023/05/10 03:01:17;;;;;;;1.40;0.70;;;20.40;64.30;;;;;;5071715;28;20446;-51
2023/05/10 03:03:43;;;;;;;0.77;0.73;;;20.40;63.90;;;;;;5072495;28;20486;-50
2023/05/10 03:06:09;;;;;;;2.40;0.87;;;20.40;63.60;;;;;;5068083;28;20644;-50
2023/05/10 03:08:35;;;;;;;1.17;1.00;;;20.40;63.50;;;;;;5076569;28;20680;-50
2023/05/10 03:11:28;;;;;;;2.30;0.90;;;20.40;63.40;;;;;;5069079;28;20438;-50
2023/05/10 03:14:12;;;;;;;0.80;0.80;;;20.40;63.20;;;;;;5071424;28;20192;-53
2023/05/10 03:17:04;;;;;;;14.03;1.87;;;20.40;63.20;;;;;;5071529;28;20487;-52
2023/05/10 03:19:43;;;;;;;1.60;1.17;;;20.40;63.20;;;;;;5064236;28;20466;-50
2023/05/10 03:22:13;;;;;;;1.00;1.00;;;20.40;63.20;;;;;;5072819;28;20446;-50
2023/05/10 03:24:41;;;;;;;6.80;1.50;;;20.40;63.50;;;;;;5067162;28;20976;-50
2023/05/10 03:27:08;;;;;;;1.17;1.07;;;20.40;63.90;;;;;;5064173;28;20801;-54
2023/05/10 03:29:34;;;;;;;1.47;1.13;;;20.40;64.00;;;;;;5064623;28;20448;-51
2023/05/10 03:32:00;;;;;;;1.30;1.20;;;20.40;63.80;;;;;;5064048;28;20434;-50
2023/05/10 03:34:26;;;;;;;1.43;1.30;;;20.40;63.70;;;;;;5059615;28;20210;-50
2023/05/10 03:36:52;;;;;;;1.33;1.23;;;20.50;63.70;;;;;;5064135;28;20457;-53
2023/05/10 03:39:17;;;;;;;1.37;1.27;;;20.50;63.70;;;;;;5058094;28;20538;-52
2023/05/10 03:41:43;;;;;;;2.10;1.20;;;20.50;63.60;;;;;;5066614;28;20321;-50
2023/05/10 03:44:08;;;;;;;1.20;1.10;;;20.60;63.70;;;;;;5067970;28;20187;-50
2023/05/10 03:46:34;;;;;;;1.40;1.30;;;20.60;63.80;;;;;;5069126;28;20283;-50
2023/05/10 03:48:59;;;;;;;1.90;1.30;;;20.70;64.20;;;;;;5064707;28;20199;-54
2023/05/10 03:51:27;;;;;;;1.27;1.17;;;20.70;64.00;;;;;;5067674;28;20196;-52
2023/05/10 03:53:54;;;;;;;1.50;1.40;;;20.70;64.00;;;;;;5063249;28;20605;-52
2023/05/10 03:56:20;;;;;;;1.17;1.07;;;20.70;64.10;;;;;;5065967;28;20430;-50
2023/05/10 03:58:46;;;;;;;1.67;1.57;;;20.70;63.60;;;;;;5066873;28;20610;-50
2023/05/10 04:01:12;;;;;;;0.90;0.90;;;20.70;63.40;;;;;;5061136;28;20540;-50
2023/05/10 04:03:38;;;;;;;1.43;1.33;;;20.80;63.40;;;;;;5064233;28;20191;-51
2023/05/10 04:06:04;;;;;;;1.20;1.10;;;20.80;63.00;;;;;;5059785;28;20587;-50
2023/05/10 04:08:30;;;;;;;1.13;0.97;;;20.80;62.50;;;;;;5060085;28;20283;-50
2023/05/10 04:11:07;;;;;;;1.40;1.30;;;20.80;62.40;;;;;;5059191;28;20535;-55
2023/05/10 04:13:33;;;;;;;3.37;1.27;;;20.70;62.40;;;;;;5060985;28;20442;-51
2023/05/10 04:15:59;;;;;;;1.00;0.90;;;20.70;62.30;;;;;;5061257;28;20445;-50
2023/05/10 04:18:24;;;;;;;1.97;1.10;;;20.60;61.90;;;;;;5058990;28;20235;-51
2023/05/10 04:20:50;;;;;;;1.47;1.37;;;20.50;62.20;;;;;;5060074;28;20229;-50
2023/05/10 04:23:16;;;;;;;2.60;1.00;;;20.50;62.40;;;;;;5061011;28;20652;-53
2023/05/10 04:25:42;;;;;;;1.43;1.17;;;20.50;62.60;;;;;;5063105;28;20269;-50
2023/05/10 04:28:08;;;;;;;1.37;1.07;;;20.50;62.70;;;;;;5057885;28;20977;-51
2023/05/10 04:30:34;;;;;;;1.53;1.40;;;20.50;62.80;;;;;;5061839;28;20458;-49
2023/05/10 04:32:59;;;;;;;1.50;1.30;;;20.20;62.60;;;;;;5059286;28;20192;-52
2023/05/10 04:35:25;;;;;;;2.63;1.20;;;20.20;63.80;;;;;;5046739;28;20199;-50
2023/05/10 04:37:51;;;;;;;1.40;1.30;;;20.20;63.80;;;;;;5061186;28;20215;-52
2023/05/10 04:40:17;;;;;;;1.90;1.50;;;20.30;63.80;;;;;;5061263;28;20429;-49
2023/05/10 04:42:43;;;;;;;1.63;1.27;;;20.30;63.70;;;;;;5058711;28;20193;-52
2023/05/10 04:45:10;;;;;;;1.00;1.00;;;20.30;63.70;;;;;;5063442;28;20199;-50
2023/05/10 04:47:36;;;;;;;1.77;1.20;;;20.40;64.00;;;;;;5062473;28;20450;-54
2023/05/10 04:50:03;;;;;;;1.67;1.50;;;20.40;63.90;;;;;;5061869;28;20442;-53
2023/05/10 04:52:28;;;;;;;1.53;1.43;;;20.50;64.00;;;;;;5070163;28;20449;-53
2023/05/10 04:54:54;;;;;;;1.80;1.70;;;20.60;64.20;;;;;;5066631;28;20474;-52
2023/05/10 04:57:20;;;;;;;1.60;1.50;;;20.60;64.00;;;;;;5062697;28;20583;-50
2023/05/10 04:59:45;;;;;;;1.67;1.57;;;20.70;64.00;;;;;;5060323;28;20675;-50
2023/05/10 05:02:11;;;;;;;2.97;2.17;;;20.70;64.00;;;;;;5058081;28;20195;-53
2023/05/10 05:04:36;;;;;;;2.30;2.00;;;20.80;63.90;;;;;;5057967;28;20524;-52
2023/05/10 05:07:02;;;;;;;2.10;1.30;;;20.80;63.70;;;;;;5065812;28;20196;-53
2023/05/10 05:09:27;;;;;;;2.63;1.50;;;20.80;63.60;;;;;;5059731;28;20196;-52
2023/05/10 05:11:53;;;;;;;2.73;1.30;;;20.90;63.40;;;;;;5060807;28;20200;-50
2023/05/10 05:14:20;;;;;;;1.97;1.27;;;20.80;62.50;;;;;;5045011;28;20279;-50
2023/05/10 05:16:46;;;;;;;1.70;1.30;;;20.70;61.70;;;;;;5067432;28;20214;-51
2023/05/10 05:19:12;;;;;;;2.17;1.40;;;20.70;62.00;;;;;;5042391;28;20449;-53
2023/05/10 05:21:37;;;;;;;5.00;1.30;;;20.70;62.00;;;;;;5057158;28;20205;-49
2023/05/10 05:24:04;;;;;;;5.87;1.40;;;20.60;62.20;;;;;;5061674;28;20188;-50
2023/05/10 05:26:29;;;;;;;1.43;1.33;;;20.50;62.50;;;;;;5068727;28;20188;-50
2023/05/10 05:28:55;;;;;;;2.87;1.50;;;20.60;62.80;;;;;;5058704;28;20511;-53
2023/05/10 05:31:20;;;;;;;2.40;1.80;;;20.60;62.70;;;;;;5065836;28;20564;-49
2023/05/10 05:33:46;;;;;;;1.53;1.43;;;20.70;62.80;;;;;;5058041;28;20223;-53
2023/05/10 05:36:12;;;;;;;1.80;1.33;;;20.70;63.00;;;;;;5064978;28;20202;-50
2023/05/10 05:38:37;;;;;;;3.80;1.70;;;20.80;63.10;;;;;;5074437;28;20234;-51
2023/05/10 05:41:03;;;;;;;1.67;1.57;;;20.80;62.70;;;;;;5070467;28;20684;-50
2023/05/10 05:43:28;;;;;;;1.87;1.60;;;20.80;62.90;;;;;;5071455;28;20188;-50
2023/05/10 05:45:54;;;;;;;1.60;1.50;;;20.80;63.10;;;;;;5063486;28;20275;-50
2023/05/10 05:48:20;;;;;;;2.33;1.90;;;20.80;63.10;;;;;;5070735;28;20210;-52
2023/05/10 05:50:46;;;;;;;3.90;1.67;;;20.80;62.80;;;;;;5071298;28;20442;-49
2023/05/10 05:53:12;;;;;;;2.87;2.00;;;20.80;63.60;;;;;;5071282;28;20540;-50
2023/05/10 05:55:38;;;;;;;1.67;1.57;;;20.80;63.70;;;;;;5059859;28;20995;-51
2023/05/10 05:58:03;;;;;;;6.47;1.53;;;20.90;63.40;;;;;;5065923;28;20482;-49
2023/05/10 06:00:29;;;;;;;1.60;1.50;;;20.90;63.20;;;;;;5070986;28;20651;-55
2023/05/10 06:02:55;;;;;;;3.33;1.20;;;20.80;63.30;;;;;;5070146;28;20718;-50
2023/05/10 06:05:20;;;;;;;2.00;1.50;;;20.80;63.30;;;;;;5064037;28;20227;-52
2023/05/10 06:07:46;;;;;;;3.27;1.40;;;20.90;63.30;;;;;;5070169;28;20643;-50
2023/05/10 06:10:12;;;;;;;2.43;1.30;;;20.90;63.60;;;;;;5070758;28;20294;-51
2023/05/10 06:12:37;;;;;;;5.03;2.13;;;20.90;63.80;;;;;;5058913;28;20192;-49
2023/05/10 06:15:03;;;;;;;6.00;1.77;;;21.00;63.80;;;;;;5063521;28;20217;-50
2023/05/10 06:17:29;;;;;;;2.70;1.50;;;21.00;63.30;;;;;;5063516;28;20643;-50
2023/05/10 06:19:56;;;;;;;1.73;1.63;;;20.90;62.40;;;;;;5069669;28;20442;-49
2023/05/10 06:22:24;;;;;;;1.50;1.40;;;20.90;62.30;;;;;;5065529;28;20442;-52
2023/05/10 06:24:50;;;;;;;2.20;1.70;;;20.90;62.40;;;;;;5069194;28;20458;-50
2023/05/10 06:27:15;;;;;;;3.53;1.70;;;20.80;61.00;;;;;;5056915;28;20481;-51
2023/05/10 06:29:41;;;;;;;1.50;1.40;;;20.80;62.10;;;;;;5064875;28;20196;-50
2023/05/10 06:32:07;;;;;;;2.07;1.70;;;20.80;62.20;;;;;;5067841;28;20244;-51
2023/05/10 06:34:32;;;;;;;1.97;1.53;;;20.80;61.70;;;;;;5069297;28;20651;-50
2023/05/10 06:36:58;;;;;;;1.63;1.50;;;20.70;61.30;;;;;;5073735;28;20206;-50
2023/05/10 06:39:23;;;;;;;3.20;1.60;;;20.40;61.40;;;;;;5062982;28;20702;-50
2023/05/10 06:41:49;;;;;;;2.30;1.50;;;20.40;62.00;;;;;;5070712;28;20195;-49
2023/05/10 06:44:15;;;;;;;3.00;1.60;;;20.40;62.30;;;;;;5070409;28;20632;-49
2023/05/10 06:46:41;;;;;;;1.90;1.30;;;20.40;62.30;;;;;;5070739;28;20706;-50
2023/05/10 06:49:07;;;;;;;2.40;2.07;;;20.30;61.70;;;;;;5069412;28;20226;-49
2023/05/10 06:51:32;;;;;;;1.73;1.63;;;20.10;62.30;;;;;;5066031;28;20507;-50
2023/05/10 06:53:58;;;;;;;2.20;1.40;;;20.10;63.30;;;;;;5063604;28;20694;-52
2023/05/10 06:56:23;;;;;;;2.63;1.57;;;20.20;63.40;;;;;;5070581;28;20203;-51
2023/05/10 06:58:49;;;;;;;1.47;1.23;;;20.30;63.10;;;;;;5069828;28;20223;-51
2023/05/10 07:01:14;;;;;;;1.33;1.20;;;20.30;62.50;;;;;;5064042;28;20196;-50
2023/05/10 07:03:40;;;;;;;1.83;1.53;;;20.40;62.80;;;;;;5070518;28;20184;-50
2023/05/10 07:06:07;;;;;;;2.40;1.23;;;20.50;62.50;;;;;;5070101;28;20196;-50
2023/05/10 07:08:33;;;;;;;1.70;1.60;;;20.50;62.20;;;;;;5069273;28;20228;-50
2023/05/10 07:11:10;;;;;;;1.57;1.47;;;20.50;62.60;;;;;;5070612;28;20515;-50
2023/05/10 07:13:36;;;;;;;1.37;1.27;;;20.70;62.10;;;;;;5070397;28;20440;-52
2023/05/10 07:16:02;;;;;;;1.30;1.20;;;20.70;61.30;;;;;;5069996;28;20426;-50
2023/05/10 07:18:28;;;;;;;2.30;1.50;;;20.60;60.90;;;;;;5066950;28;20478;-53
2023/05/10 07:20:54;;;;;;;1.57;1.47;;;20.70;61.60;;;;;;5068546;28;20424;-50
2023/05/10 07:23:20;;;;;;;1.50;1.40;;;20.60;61.40;;;;;;5072605;28;20201;-51
2023/05/10 07:25:49;;;;;;;4.17;1.43;;;20.50;61.60;;;;;;5073740;28;20727;-49
2023/05/10 07:28:16;;;;;;;2.60;1.63;;;20.40;62.30;;;;;;5069436;28;20196;-50
2023/05/10 07:30:42;;;;;;;2.53;1.40;;;20.30;62.30;;;;;;5068349;28;20521;-49
2023/05/10 07:33:09;;;;;;;1.57;1.47;;;20.30;63.40;;;;;;5073858;28;20429;-50
2023/05/10 07:35:35;;;;;;;1.10;1.00;;;20.40;62.50;;;;;;5073387;28;20491;-50
2023/05/10 07:38:01;;;;;;;1.20;1.20;;;20.50;62.20;;;;;;5073866;28;20513;-49
2023/05/10 07:40:26;;;;;;;2.37;1.40;;;20.40;62.30;;;;;;5068575;28;20245;-50
2023/05/10 07:42:52;;;;;;;1.40;1.30;;;20.10;61.90;;;;;;5073619;28;20198;-50
2023/05/10 07:45:18;;;;;;;1.67;1.10;;;19.90;61.90;;;;;;5073731;28;20196;-49
2023/05/10 07:47:43;;;;;;;1.10;1.00;;;19.90;62.50;;;;;;5072072;28;20245;-50
2023/05/10 07:50:09;;;;;;;1.37;1.27;;;20.20;62.50;;;;;;5071261;28;21009;-50
2023/05/10 07:52:35;;;;;;;1.37;1.27;;;20.20;61.80;;;;;;5073366;28;20196;-50
2023/05/10 07:55:00;;;;;;;1.40;1.30;;;20.30;62.50;;;;;;5073008;28;20269;-49
2023/05/10 07:57:26;;;;;;;3.10;1.57;;;20.50;62.30;;;;;;5073444;28;20224;-50
2023/05/10 07:59:51;;;;;;;2.60;1.40;;;20.50;61.60;;;;;;5069337;28;20195;-51
2023/05/10 08:02:17;;;;;;;1.37;1.20;;;20.60;61.60;;;;;;5073400;28;20551;-50
2023/05/10 08:04:42;;;;;;;1.67;1.57;;;20.70;61.00;;;;;;5067287;28;20231;-49
2023/05/10 08:07:08;;;;;;;1.70;1.60;;;20.60;59.80;;;;;;5070313;28;20200;-50
2023/05/10 08:09:34;;;;;;;2.93;1.57;;;20.80;60.50;;;;;;5073115;28;20227;-53
2023/05/10 08:11:59;;;;;;;1.83;1.30;;;20.90;60.40;;;;;;5072976;28;20231;-49
2023/05/10 08:14:25;;;;;;;2.00;1.10;;;21.00;60.30;;;;;;5070965;28;20192;-50
2023/05/10 08:16:51;;;;;;;1.60;1.50;;;20.90;59.30;;;;;;5063642;28;20203;-50
2023/05/10 08:19:19;;;;;;;2.37;1.30;;;21.10;59.50;;;;;;5059309;28;20227;-53
2023/05/10 08:21:45;;;;;;;2.63;1.20;;;21.00;59.10;;;;;;5063150;28;20563;-49
2023/05/10 08:24:11;;;;;;;1.20;1.10;;;21.10;58.90;;;;;;5069521;28;20521;-53
2023/05/10 08:26:36;;;;;;;1.67;1.23;;;21.10;58.80;;;;;;5069146;28;20849;-51
2023/05/10 08:29:02;;;;;;;2.27;1.20;;;20.90;58.10;;;;;;5067102;28;20656;-49
2023/05/10 08:31:28;;;;;;;1.10;1.00;;;21.00;58.50;;;;;;5064628;28;20216;-48
2023/05/10 08:33:53;;;;;;;7.23;1.03;;;20.70;57.90;;;;;;5065849;28;20200;-49
2023/05/10 08:36:21;;;;;;;1.30;1.20;;;20.80;57.80;;;;;;5062987;28;20295;-49
2023/05/10 08:38:49;;;;;;;2.67;1.13;;;20.70;58.10;;;;;;5058533;28;20247;-49
2023/05/10 08:41:15;;;;;;;1.37;1.17;;;20.70;57.80;;;;;;5067171;28;20454;-48
2023/05/10 08:43:45;;;;;;;2.30;1.00;;;20.80;57.70;;;;;;5064288;28;20426;-49
2023/05/10 08:46:18;;;;;;;1.43;1.00;;;20.70;58.00;;;;;;5042523;28;20705;-48
2023/05/10 08:48:48;;;;;;;1.47;0.90;;;20.40;57.80;;;;;;5070827;28;20438;-53
2023/05/10 08:51:17;;;;;;;1.30;1.00;;;20.40;58.20;;;;;;5060711;28;20439;-53
2023/05/10 08:53:44;;;;;;;1.30;1.10;;;20.50;58.10;;;;;;5069099;28;20897;-51
2023/05/10 08:56:10;;;;;;;1.80;0.80;;;20.40;57.40;;;;;;5074355;28;20447;-49
2023/05/10 08:58:37;;;;;;;1.77;1.10;;;20.30;58.00;;;;;;5071342;28;20573;-50
2023/05/10 09:01:03;;;;;;;1.17;0.80;;;20.30;58.10;;;;;;5064929;28;20442;-52
2023/05/10 09:03:30;;;;;;;1.10;1.00;;;20.20;57.30;;;;;;5062010;28;20438;-50
2023/05/10 09:05:55;;;;;;;1.50;0.83;;;20.00;56.90;;;;;;5061277;28;20439;-49
2023/05/10 09:08:25;;;;;;;0.83;0.83;;;19.90;56.90;;;;;;5063529;28;20438;-50
2023/05/10 09:10:51;;;;;;;1.20;1.10;;;19.90;56.90;;;;;;5061508;28;20555;-48
2023/05/10 09:13:18;;;;;;;0.80;0.80;;;20.00;57.00;;;;;;5065280;28;20438;-49
2023/05/10 09:15:48;;;;;;;3.70;0.90;;;20.20;57.40;;;;;;5061200;28;20199;-54
2023/05/10 09:18:15;;;;;;;0.67;0.67;;;20.40;56.90;;;;;;5066183;28;20894;-49
2023/05/10 09:20:40;;;;;;;0.70;0.70;;;20.40;56.80;;;;;;5069292;28;20471;-49
2023/05/10 09:23:06;;;;;;;0.67;0.67;;;20.40;56.30;;;;;;5064178;28;20193;-51
2023/05/10 09:25:35;;;;;;;1.17;0.73;;;20.40;56.70;;;;;;5056588;28;20197;-51
2023/05/10 09:28:01;;;;;;;1.10;0.77;;;20.50;56.60;;;;;;5059980;28;20507;-52
2023/05/10 09:30:31;;;;;;;0.80;0.80;;;20.50;56.10;;;;;;5059567;28;20488;-52
2023/05/10 09:32:58;;;;;;;0.80;0.80;;;20.70;56.10;;;;;;5069013;28;20214;-48
2023/05/10 09:35:26;;;;;;;1.00;0.80;;;20.80;55.90;;;;;;5069773;28;20496;-50
2023/05/10 09:37:53;;;;;;;1.33;1.10;;;20.70;55.60;;;;;;5060072;28;20873;-49
2023/05/10 09:40:21;;;;;;;0.77;0.70;;;20.70;56.50;;;;;;5060129;28;20496;-50
2023/05/10 09:42:54;;;;;;;1.13;0.70;;;20.80;57.30;;;;;;5070162;28;20481;-49
2023/05/10 09:45:21;;;;;;;0.93;0.77;;;21.10;56.80;;;;;;5058163;28;20816;-50
2023/05/10 09:47:47;;;;;;;0.70;0.70;;;21.10;55.70;;;;;;5062937;28;20825;-52
2023/05/10 09:50:12;;;;;;;1.27;0.73;;;21.00;54.10;;;;;;5062852;28;20597;-49
2023/05/10 09:52:53;;;;;;;3.33;0.93;;;20.90;53.80;;;;;;5069196;28;20252;-52
2023/05/10 09:55:21;;;;;;;0.90;0.70;;;20.90;54.70;;;;;;5069613;28;20243;-52
2023/05/10 09:57:48;;;;;;;4.50;1.10;;;21.00;55.00;;;;;;5070172;28;20489;-48
2023/05/10 10:00:18;;;;;;;1.60;0.93;;;20.70;54.50;;;;;;5069203;28;20438;-50
2023/05/10 10:02:53;;;;;;;1.20;1.10;;;20.90;55.40;;;;;;5068003;28;20449;-51
2023/05/10 10:05:19;;;;;;;1.13;0.90;;;21.10;55.00;;;;;;5066501;28;20456;-50
2023/05/10 10:07:45;;;;;;;2.33;1.27;;;21.20;53.60;;;;;;5062333;28;20446;-49
2023/05/10 10:10:12;;;;;;;1.20;1.10;;;21.30;54.60;;;;;;5070201;28;20222;-49
2023/05/10 10:12:39;;;;;;;1.30;1.17;;;21.50;54.80;;;;;;5070852;28;20205;-50
2023/05/10 10:15:07;;;;;;;1.10;1.00;;;21.50;53.80;;;;;;5065381;28;20439;-50
2023/05/10 10:17:34;;;;;;;2.20;1.00;;;21.60;53.80;;;;;;5067971;28;20542;-49
2023/05/10 10:20:02;;;;;;;1.00;1.00;;;21.70;54.30;;;;;;5068254;28;20438;-53
2023/05/10 10:22:27;;;;;;;1.40;1.23;;;21.70;54.50;;;;;;5065733;28;20572;-53
2023/05/10 10:24:54;;;;;;;1.03;1.00;;;21.50;54.10;;;;;;5068141;28;20532;-52
2023/05/10 10:27:26;;;;;;;1.30;0.90;;;21.20;54.60;;;;;;5066265;28;20199;-49
2023/05/10 10:30:23;;;;;;;1.63;1.07;;;21.30;54.80;;;;;;5063251;28;20450;-51
2023/05/10 10:33:26;;;;;;;0.90;0.80;;;21.10;54.70;;;;;;5064820;28;20475;-52
2023/05/10 10:35:53;;;;;;;1.70;1.03;;;21.10;54.90;;;;;;5063608;28;20776;-50
2023/05/10 10:38:18;;;;;;;1.50;1.40;;;21.10;54.10;;;;;;5064525;28;20835;-51
2023/05/10 10:40:44;;;;;;;2.73;1.80;;;21.00;53.80;;;;;;5061719;28;20464;-52
2023/05/10 10:43:27;;;;;;;1.60;1.50;;;21.10;53.60;;;;;;5063513;28;20674;-50
2023/05/10 10:46:14;;;;;;;3.27;1.73;;;20.80;53.90;;;;;;5069341;28;20298;-50
2023/05/10 10:48:41;;;;;;;2.90;1.67;;;20.90;54.70;;;;;;5062827;28;20455;-50
2023/05/10 10:51:07;;;;;;;1.83;1.60;;;21.00;54.70;;;;;;5058929;28;20788;-50
2023/05/10 10:53:33;;;;;;;2.37;1.70;;;21.10;54.20;;;;;;5064416;28;20450;-49
2023/05/10 10:56:09;;;;;;;4.67;1.70;;;21.10;54.20;;;;;;5063729;28;20193;-49
2023/05/10 10:58:37;;;;;;;3.43;1.80;;;21.20;53.50;;;;;;5073948;28;20478;-50
2023/05/10 11:01:17;;;;;;;1.93;1.30;;;21.10;53.90;;;;;;5064622;28;20945;-51
2023/05/10 11:04:03;;;;;;;6.13;1.37;;;21.20;54.20;;;;;;5065113;28;20947;-52
2023/05/10 11:06:33;;;;;;;2.77;1.30;;;20.90;54.00;;;;;;5066134;28;20904;-49
2023/05/10 11:09:05;;;;;;;1.20;1.10;;;20.80;54.90;;;;;;5066205;28;20938;-50
2023/05/10 11:11:31;;;;;;;1.93;1.40;;;20.80;53.60;;;;;;5069640;28;20445;-50
2023/05/10 11:14:03;;;;;;;1.13;1.03;;;20.80;53.10;;;;;;5068854;28;20438;-51
2023/05/10 11:16:43;;;;;;;0.87;0.87;;;20.60;52.50;;;;;;5067646;28;20212;-50
2023/05/10 11:19:11;;;;;;;2.33;1.07;;;20.40;52.10;;;;;;5065445;28;20539;-51
2023/05/10 11:21:47;;;;;;;1.37;0.87;;;20.40;52.80;;;;;;5080987;28;20449;-49
2023/05/10 11:24:15;;;;;;;4.20;0.90;;;20.40;52.10;;;;;;5065824;28;20807;-51
2023/05/10 11:26:41;;;;;;;1.13;0.93;;;20.70;53.00;;;;;;5060183;28;20474;-50
2023/05/10 11:29:07;;;;;;;3.23;1.20;;;20.80;53.00;;;;;;5070531;28;20524;-49
2023/05/10 11:31:33;;;;;;;2.63;1.40;;;21.00;52.80;;;;;;5059728;28;20962;-51
2023/05/10 11:34:01;;;;;;;2.10;1.50;;;21.10;52.50;;;;;;5063698;28;20533;-50
2023/05/10 11:36:29;;;;;;;1.23;1.10;;;21.00;52.40;;;;;;5065220;28;20208;-49
2023/05/10 11:38:56;;;;;;;2.63;1.50;;;21.10;52.70;;;;;;5063852;28;20490;-50
2023/05/10 11:41:23;;;;;;;3.43;1.87;;;21.30;52.30;;;;;;5063941;28;20445;-50
2023/05/10 11:43:53;;;;;;;1.90;1.43;;;21.30;52.20;;;;;;5066917;28;20449;-49
2023/05/10 11:46:26;;;;;;;1.93;1.60;;;21.30;52.30;;;;;;5070065;28;21013;-49
2023/05/10 11:48:55;;;;;;;2.10;1.33;;;21.30;52.30;;;;;;5072374;28;20437;-52
2023/05/10 11:51:22;;;;;;;4.33;1.97;;;21.30;52.00;;;;;;5073135;28;20418;-51
2023/05/10 11:53:56;;;;;;;1.30;1.20;;;21.30;53.00;;;;;;5071945;28;20596;-49
2023/05/10 11:56:23;;;;;;;1.60;1.50;;;21.50;52.70;;;;;;5070293;28;20445;-53
2023/05/10 11:58:56;;;;;;;2.10;1.00;;;21.70;52.80;;;;;;5072769;28;20500;-53
2023/05/10 12:01:24;;;;;;;3.60;1.63;;;21.60;51.40;;;;;;5059466;28;20439;-50
2023/05/10 12:03:51;;;;;;;1.33;1.10;;;21.50;50.80;;;;;;5070610;28;20956;-52
2023/05/10 12:06:19;;;;;;;2.13;1.73;;;21.10;49.70;;;;;;5060718;28;20442;-50
2023/05/10 12:08:46;;;;;;;0.87;0.77;;;20.90;50.10;;;;;;5059148;28;20434;-48
2023/05/10 12:11:15;;;;;;;1.47;1.00;;;21.10;51.20;;;;;;5062634;28;20560;-51
2023/05/10 12:13:42;;;;;;;1.60;1.50;;;21.10;50.40;;;;;;5060231;28;20447;-49
2023/05/10 12:16:20;;;;;;;2.30;1.40;;;21.10;50.30;;;;;;5062312;28;20434;-50
2023/05/10 12:18:49;;;;;;;1.17;1.00;;;21.20;50.10;;;;;;5061859;28;20522;-49
2023/05/10 12:21:15;;;;;;;1.63;1.10;;;21.30;49.90;;;;;;5069009;28;20489;-48
2023/05/10 12:23:41;;;;;;;1.30;1.20;;;21.40;49.70;;;;;;5058588;28;20871;-51
2023/05/10 12:26:10;;;;;;;1.47;1.10;;;21.50;49.50;;;;;;5062030;28;20497;-49
2023/05/10 12:28:35;;;;;;;2.07;1.40;;;21.50;49.20;;;;;;5061427;28;20517;-50
2023/05/10 12:31:02;;;;;;;1.63;1.03;;;21.40;49.00;;;;;;5073939;28;20422;-49
2023/05/10 12:33:45;;;;;;;1.50;1.13;;;21.30;49.80;;;;;;5062864;28;20184;-49
2023/05/10 12:36:12;;;;;;;1.37;1.27;;;21.10;49.20;;;;;;5066834;28;20449;-49
2023/05/10 12:38:42;;;;;;;2.37;1.30;;;21.00;50.90;;;;;;5072019;28;20482;-50
2023/05/10 12:41:12;;;;;;;2.07;1.30;;;21.00;51.40;;;;;;5063037;28;20587;-51
2023/05/10 12:43:39;;;;;;;1.53;1.10;;;21.00;50.60;;;;;;5060284;28;20465;-50
2023/05/10 12:46:16;;;;;;;4.30;1.17;;;20.90;49.50;;;;;;5045434;28;21015;-51
2023/05/10 12:48:43;;;;;;;3.97;1.13;;;21.00;49.80;;;;;;5060724;28;20866;-51
2023/05/10 12:51:11;;;;;;;3.57;1.10;;;21.10;49.80;;;;;;5070914;28;20478;-51
2023/05/10 12:53:37;;;;;;;1.40;1.20;;;21.20;50.10;;;;;;5068515;28;20568;-50